KTBR/TBR METAR and TAF weather

Enter ICAO airport designator
Station Type Date Time Source
KTBR METAR 2022/01/26 07:55 UTC NOAA

KTBR 260755Z AUTO 00000KT 10SM OVC100 08/07 A3006 RMK AO2 T00810066


Station Type Date Time Source
KTBR Decoded METAR 2022/01/26 07:55 UTC NOAA

Statesboro, Statesboro-Bulloch County Airport, GA, United States (KTBR) 32-28-59N 081-44-14W
Jan 26, 2022 - 02:55 AM EST / 2022.01.26 0755 UTC
Wind: Calm:0
Visibility: 10 mile(s):0
Sky conditions: overcast
Temperature: 46.6 F (8.1 C)
Dew Point: 43.9 F (6.6 C)
Relative Humidity: 90%
Pressure (altimeter): 30.06 in. Hg (1017 hPa)
ob: KTBR 260755Z AUTO 00000KT 10SM OVC100 08/07 A3006 RMK AO2 T00810066
cycle: 8

Station Type Date Time Source
KTBR TAF UTC NOAA

Error!

Example: see airport list